Anatone, Washington
Current Conditions -  °F | °C
As of 11:56 AM on Friday 19 Dec 2014 (Local Time) from KLWS Reporting Station
Light Rain Light Rain  
Wind Chill: 39°   Ceiling: 3900
Heat Index: 42°   Visibility: 4mi
Dew Point: 42°   Wind: 5mph
Humidity: 100%   Direction: 130°SE
Pressure: 29.96"   Gusts: NA
Location:  46.13°N, 117.13°W
Report Text: KLWS 191956Z 13004KT 4SM -RA BR FEW004 FEW018 OVC039 06/06 A2996 RMK AO2 SLP153 P0002 T00560056
Loading
Personal Weather Stations






























Interactive Weather Map New forecast layout! Learn more

10-Day Weather Forecast

Advertisements
Track Severe Weather on mobile